sensor_id;sensor_type;location;lat;lon;timestamp;P1;durP1;ratioP1;P2;durP2;ratioP2
20711;SDS011;10517;50.742;4.224;2023-02-10T00:02:22;33.73;;;14.33;;
20711;SDS011;10517;50.742;4.224;2023-02-10T00:04:48;28.67;;;14.63;;
20711;SDS011;10517;50.742;4.224;2023-02-10T00:07:15;30.77;;;14.17;;
20711;SDS011;10517;50.742;4.224;2023-02-10T00:09:44;27.63;;;12.30;;
20711;SDS011;10517;50.742;4.224;2023-02-10T00:12:09;32.20;;;13.70;;
20711;SDS011;10517;50.742;4.224;2023-02-10T00:14:36;34.10;;;12.63;;
20711;SDS011;10517;50.742;4.224;2023-02-10T00:17:03;34.80;;;13.93;;
20711;SDS011;10517;50.742;4.224;2023-02-10T00:19:29;31.00;;;13.73;;
20711;SDS011;10517;50.742;4.224;2023-02-10T00:21:56;28.00;;;12.70;;
20711;SDS011;10517;50.742;4.224;2023-02-10T00:24:22;31.23;;;14.07;;
20711;SDS011;10517;50.742;4.224;2023-02-10T00:26:49;26.00;;;13.33;;
20711;SDS011;10517;50.742;4.224;2023-02-10T00:29:15;27.23;;;11.93;;
20711;SDS011;10517;50.742;4.224;2023-02-10T00:31:41;29.20;;;12.03;;
20711;SDS011;10517;50.742;4.224;2023-02-10T00:34:09;35.67;;;13.97;;
20711;SDS011;10517;50.742;4.224;2023-02-10T00:36:37;30.63;;;12.93;;
20711;SDS011;10517;50.742;4.224;2023-02-10T00:39:02;26.33;;;12.10;;
20711;SDS011;10517;50.742;4.224;2023-02-10T00:41:28;25.37;;;12.20;;
20711;SDS011;10517;50.742;4.224;2023-02-10T00:43:53;32.10;;;13.27;;
20711;SDS011;10517;50.742;4.224;2023-02-10T00:46:20;37.47;;;12.80;;
20711;SDS011;10517;50.742;4.224;2023-02-10T00:48:46;30.50;;;11.53;;
20711;SDS011;10517;50.742;4.224;2023-02-10T00:51:13;29.73;;;13.13;;
20711;SDS011;10517;50.742;4.224;2023-02-10T00:53:39;32.13;;;12.67;;
20711;SDS011;10517;50.742;4.224;2023-02-10T00:56:05;26.90;;;13.87;;
20711;SDS011;10517;50.742;4.224;2023-02-10T00:58:31;25.67;;;13.37;;
20711;SDS011;10517;50.742;4.224;2023-02-10T01:00:56;37.40;;;12.53;;
20711;SDS011;10517;50.742;4.224;2023-02-10T01:03:22;25.57;;;11.80;;
20711;SDS011;10517;50.742;4.224;2023-02-10T01:05:49;34.30;;;13.73;;
20711;SDS011;10517;50.742;4.224;2023-02-10T01:08:15;26.63;;;11.90;;
20711;SDS011;10517;50.742;4.224;2023-02-10T01:10:41;26.30;;;12.17;;
20711;SDS011;10517;50.742;4.224;2023-02-10T01:13:07;28.70;;;13.60;;
20711;SDS011;10517;50.742;4.224;2023-02-10T01:15:34;29.47;;;12.53;;
20711;SDS011;10517;50.742;4.224;2023-02-10T01:18:00;35.20;;;14.33;;
20711;SDS011;10517;50.742;4.224;2023-02-10T01:20:26;28.00;;;12.13;;
20711;SDS011;10517;50.742;4.224;2023-02-10T01:22:51;25.87;;;13.03;;
20711;SDS011;10517;50.742;4.224;2023-02-10T01:25:17;31.47;;;14.30;;
20711;SDS011;10517;50.742;4.224;2023-02-10T01:27:43;30.10;;;13.30;;
20711;SDS011;10517;50.742;4.224;2023-02-10T01:30:09;35.73;;;14.67;;
20711;SDS011;10517;50.742;4.224;2023-02-10T01:32:35;26.43;;;11.90;;
20711;SDS011;10517;50.742;4.224;2023-02-10T01:35:00;27.20;;;12.53;;
20711;SDS011;10517;50.742;4.224;2023-02-10T01:37:26;32.37;;;13.27;;
20711;SDS011;10517;50.742;4.224;2023-02-10T01:39:51;38.57;;;14.27;;
20711;SDS011;10517;50.742;4.224;2023-02-10T01:42:17;29.60;;;12.87;;
20711;SDS011;10517;50.742;4.224;2023-02-10T01:47:08;27.20;;;12.47;;
20711;SDS011;10517;50.742;4.224;2023-02-10T01:49:44;31.33;;;13.57;;
20711;SDS011;10517;50.742;4.224;2023-02-10T01:52:17;29.73;;;12.50;;
20711;SDS011;10517;50.742;4.224;2023-02-10T01:54:48;35.43;;;14.03;;
20711;SDS011;10517;50.742;4.224;2023-02-10T01:57:20;28.63;;;13.93;;
20711;SDS011;10517;50.742;4.224;2023-02-10T01:59:47;31.33;;;13.87;;
20711;SDS011;10517;50.742;4.224;2023-02-10T02:02:13;29.10;;;12.83;;
20711;SDS011;10517;50.742;4.224;2023-02-10T02:04:51;31.17;;;13.77;;
20711;SDS011;10517;50.742;4.224;2023-02-10T02:07:21;30.37;;;13.23;;
20711;SDS011;10517;50.742;4.224;2023-02-10T02:09:50;31.17;;;12.50;;
20711;SDS011;10517;50.742;4.224;2023-02-10T02:15:06;33.30;;;13.50;;
20711;SDS011;10517;50.742;4.224;2023-02-10T02:17:38;28.30;;;12.57;;
20711;SDS011;10517;50.742;4.224;2023-02-10T02:23:11;33.37;;;13.83;;
20711;SDS011;10517;50.742;4.224;2023-02-10T02:35:52;39.60;;;12.23;;
20711;SDS011;10517;50.742;4.224;2023-02-10T02:37:50;32.20;;;12.93;;
20711;SDS011;10517;50.742;4.224;2023-02-10T02:40:17;38.47;;;15.10;;
20711;SDS011;10517;50.742;4.224;2023-02-10T02:42:43;33.10;;;14.27;;
20711;SDS011;10517;50.742;4.224;2023-02-10T02:45:14;34.27;;;14.80;;
20711;SDS011;10517;50.742;4.224;2023-02-10T02:48:16;29.13;;;13.20;;
20711;SDS011;10517;50.742;4.224;2023-02-10T02:53:38;35.13;;;12.53;;
20711;SDS011;10517;50.742;4.224;2023-02-10T02:56:58;35.17;;;13.80;;
20711;SDS011;10517;50.742;4.224;2023-02-10T02:59:22;34.30;;;13.00;;
20711;SDS011;10517;50.742;4.224;2023-02-10T03:02:01;39.10;;;15.33;;
20711;SDS011;10517;50.742;4.224;2023-02-10T03:04:31;36.33;;;15.30;;
20711;SDS011;10517;50.742;4.224;2023-02-10T03:06:58;37.63;;;14.93;;
20711;SDS011;10517;50.742;4.224;2023-02-10T03:09:25;27.07;;;12.33;;
20711;SDS011;10517;50.742;4.224;2023-02-10T03:11:52;29.40;;;13.30;;
20711;SDS011;10517;50.742;4.224;2023-02-10T03:14:17;25.97;;;11.93;;
20711;SDS011;10517;50.742;4.224;2023-02-10T03:16:43;38.07;;;14.63;;
20711;SDS011;10517;50.742;4.224;2023-02-10T03:19:09;33.33;;;14.43;;
20711;SDS011;10517;50.742;4.224;2023-02-10T03:21:34;30.97;;;14.17;;
20711;SDS011;10517;50.742;4.224;2023-02-10T03:24:00;46.17;;;14.50;;
20711;SDS011;10517;50.742;4.224;2023-02-10T03:26:27;37.63;;;14.97;;
20711;SDS011;10517;50.742;4.224;2023-02-10T03:28:53;34.90;;;13.47;;
20711;SDS011;10517;50.742;4.224;2023-02-10T03:31:19;35.13;;;14.47;;
20711;SDS011;10517;50.742;4.224;2023-02-10T03:33:44;38.80;;;13.50;;
20711;SDS011;10517;50.742;4.224;2023-02-10T03:36:10;41.23;;;15.03;;
20711;SDS011;10517;50.742;4.224;2023-02-10T03:38:36;38.00;;;17.20;;
20711;SDS011;10517;50.742;4.224;2023-02-10T03:41:01;34.07;;;13.93;;
20711;SDS011;10517;50.742;4.224;2023-02-10T03:43:27;36.40;;;14.80;;
20711;SDS011;10517;50.742;4.224;2023-02-10T03:45:52;33.47;;;13.77;;
20711;SDS011;10517;50.742;4.224;2023-02-10T03:48:18;38.07;;;13.83;;
20711;SDS011;10517;50.742;4.224;2023-02-10T03:50:44;32.03;;;14.37;;
20711;SDS011;10517;50.742;4.224;2023-02-10T03:53:09;37.77;;;13.00;;
20711;SDS011;10517;50.742;4.224;2023-02-10T03:55:35;35.90;;;15.27;;
20711;SDS011;10517;50.742;4.224;2023-02-10T03:58:01;34.27;;;12.97;;
20711;SDS011;10517;50.742;4.224;2023-02-10T04:00:28;33.37;;;15.23;;
20711;SDS011;10517;50.742;4.224;2023-02-10T04:02:54;38.00;;;15.00;;
20711;SDS011;10517;50.742;4.224;2023-02-10T04:05:19;37.23;;;14.63;;
20711;SDS011;10517;50.742;4.224;2023-02-10T04:07:45;30.33;;;13.70;;
20711;SDS011;10517;50.742;4.224;2023-02-10T04:10:11;34.43;;;14.40;;
20711;SDS011;10517;50.742;4.224;2023-02-10T04:12:37;34.50;;;14.00;;
20711;SDS011;10517;50.742;4.224;2023-02-10T04:15:03;31.73;;;14.97;;
20711;SDS011;10517;50.742;4.224;2023-02-10T04:17:30;34.03;;;14.27;;
20711;SDS011;10517;50.742;4.224;2023-02-10T04:19:56;32.03;;;13.43;;
20711;SDS011;10517;50.742;4.224;2023-02-10T04:22:21;30.00;;;13.60;;
20711;SDS011;10517;50.742;4.224;2023-02-10T04:24:47;28.50;;;13.07;;
20711;SDS011;10517;50.742;4.224;2023-02-10T04:27:12;37.20;;;15.10;;
20711;SDS011;10517;50.742;4.224;2023-02-10T04:29:38;25.60;;;12.20;;
20711;SDS011;10517;50.742;4.224;2023-02-10T04:32:05;32.40;;;14.60;;
20711;SDS011;10517;50.742;4.224;2023-02-10T04:34:32;31.93;;;13.30;;
20711;SDS011;10517;50.742;4.224;2023-02-10T04:36:58;30.70;;;14.10;;
20711;SDS011;10517;50.742;4.224;2023-02-10T04:39:23;28.40;;;13.30;;
20711;SDS011;10517;50.742;4.224;2023-02-10T04:41:49;27.37;;;13.03;;
20711;SDS011;10517;50.742;4.224;2023-02-10T04:44:14;27.67;;;11.60;;
20711;SDS011;10517;50.742;4.224;2023-02-10T04:46:40;32.17;;;13.30;;
20711;SDS011;10517;50.742;4.224;2023-02-10T04:49:05;30.57;;;13.53;;
20711;SDS011;10517;50.742;4.224;2023-02-10T04:51:31;30.70;;;13.00;;
20711;SDS011;10517;50.742;4.224;2023-02-10T04:53:56;27.00;;;13.70;;
20711;SDS011;10517;50.742;4.224;2023-02-10T04:56:22;34.40;;;13.77;;
20711;SDS011;10517;50.742;4.224;2023-02-10T04:58:47;36.00;;;15.10;;
20711;SDS011;10517;50.742;4.224;2023-02-10T05:01:13;29.53;;;13.67;;
20711;SDS011;10517;50.742;4.224;2023-02-10T05:03:39;27.87;;;13.60;;
20711;SDS011;10517;50.742;4.224;2023-02-10T05:06:05;28.23;;;12.83;;
20711;SDS011;10517;50.742;4.224;2023-02-10T05:08:36;29.03;;;14.17;;
20711;SDS011;10517;50.742;4.224;2023-02-10T05:11:06;30.20;;;13.20;;
20711;SDS011;10517;50.742;4.224;2023-02-10T05:13:32;28.53;;;13.80;;
20711;SDS011;10517;50.742;4.224;2023-02-10T05:15:58;30.67;;;13.47;;
20711;SDS011;10517;50.742;4.224;2023-02-10T05:18:24;32.23;;;15.20;;
20711;SDS011;10517;50.742;4.224;2023-02-10T05:20:49;25.70;;;13.47;;
20711;SDS011;10517;50.742;4.224;2023-02-10T05:23:15;29.50;;;12.33;;
20711;SDS011;10517;50.742;4.224;2023-02-10T05:25:41;27.87;;;12.77;;
20711;SDS011;10517;50.742;4.224;2023-02-10T05:28:06;32.93;;;14.97;;
20711;SDS011;10517;50.742;4.224;2023-02-10T05:30:32;33.63;;;14.10;;
20711;SDS011;10517;50.742;4.224;2023-02-10T05:32:57;31.17;;;14.50;;
20711;SDS011;10517;50.742;4.224;2023-02-10T05:35:23;33.43;;;14.43;;
20711;SDS011;10517;50.742;4.224;2023-02-10T05:37:48;36.57;;;15.43;;
20711;SDS011;10517;50.742;4.224;2023-02-10T05:40:14;35.37;;;13.30;;
20711;SDS011;10517;50.742;4.224;2023-02-10T05:42:40;26.77;;;13.47;;
20711;SDS011;10517;50.742;4.224;2023-02-10T05:45:05;41.37;;;20.37;;
20711;SDS011;10517;50.742;4.224;2023-02-10T05:47:31;36.83;;;14.40;;
20711;SDS011;10517;50.742;4.224;2023-02-10T05:49:57;29.50;;;13.70;;
20711;SDS011;10517;50.742;4.224;2023-02-10T05:52:23;36.37;;;14.97;;
20711;SDS011;10517;50.742;4.224;2023-02-10T05:54:49;27.93;;;13.53;;
20711;SDS011;10517;50.742;4.224;2023-02-10T05:57:15;29.83;;;14.53;;
20711;SDS011;10517;50.742;4.224;2023-02-10T05:59:40;41.67;;;17.47;;
20711;SDS011;10517;50.742;4.224;2023-02-10T06:02:06;32.37;;;13.63;;
20711;SDS011;10517;50.742;4.224;2023-02-10T06:04:32;31.90;;;14.13;;
20711;SDS011;10517;50.742;4.224;2023-02-10T06:06:58;33.73;;;14.77;;
20711;SDS011;10517;50.742;4.224;2023-02-10T06:09:24;32.90;;;13.33;;
20711;SDS011;10517;50.742;4.224;2023-02-10T06:11:51;32.27;;;15.20;;
20711;SDS011;10517;50.742;4.224;2023-02-10T06:14:17;32.43;;;14.67;;
20711;SDS011;10517;50.742;4.224;2023-02-10T06:16:42;32.73;;;12.83;;
20711;SDS011;10517;50.742;4.224;2023-02-10T06:19:09;37.37;;;15.67;;
20711;SDS011;10517;50.742;4.224;2023-02-10T06:21:34;42.27;;;15.37;;
20711;SDS011;10517;50.742;4.224;2023-02-10T06:24:00;32.80;;;15.17;;
20711;SDS011;10517;50.742;4.224;2023-02-10T06:26:26;44.00;;;17.03;;
20711;SDS011;10517;50.742;4.224;2023-02-10T06:28:52;47.33;;;15.77;;
20711;SDS011;10517;50.742;4.224;2023-02-10T06:31:19;32.03;;;16.10;;
20711;SDS011;10517;50.742;4.224;2023-02-10T06:33:44;39.90;;;16.10;;
20711;SDS011;10517;50.742;4.224;2023-02-10T06:36:10;45.23;;;17.90;;
20711;SDS011;10517;50.742;4.224;2023-02-10T06:38:37;33.40;;;15.07;;
20711;SDS011;10517;50.742;4.224;2023-02-10T06:41:03;38.53;;;17.93;;
20711;SDS011;10517;50.742;4.224;2023-02-10T06:43:29;37.93;;;16.00;;
20711;SDS011;10517;50.742;4.224;2023-02-10T06:45:55;36.60;;;15.93;;
20711;SDS011;10517;50.742;4.224;2023-02-10T06:48:20;41.13;;;15.93;;
20711;SDS011;10517;50.742;4.224;2023-02-10T06:50:46;35.97;;;15.40;;
20711;SDS011;10517;50.742;4.224;2023-02-10T06:53:11;52.30;;;17.57;;
20711;SDS011;10517;50.742;4.224;2023-02-10T06:55:37;43.13;;;16.70;;
20711;SDS011;10517;50.742;4.224;2023-02-10T06:58:03;42.23;;;18.17;;
20711;SDS011;10517;50.742;4.224;2023-02-10T07:00:29;51.60;;;18.27;;
20711;SDS011;10517;50.742;4.224;2023-02-10T07:02:57;38.10;;;15.77;;
20711;SDS011;10517;50.742;4.224;2023-02-10T07:05:23;56.60;;;21.33;;
20711;SDS011;10517;50.742;4.224;2023-02-10T07:07:49;45.23;;;19.37;;
20711;SDS011;10517;50.742;4.224;2023-02-10T07:10:18;43.63;;;17.70;;
20711;SDS011;10517;50.742;4.224;2023-02-10T07:12:45;36.37;;;15.63;;
20711;SDS011;10517;50.742;4.224;2023-02-10T07:15:12;44.30;;;19.07;;
20711;SDS011;10517;50.742;4.224;2023-02-10T07:17:38;47.37;;;19.20;;
20711;SDS011;10517;50.742;4.224;2023-02-10T07:20:04;42.43;;;17.97;;
20711;SDS011;10517;50.742;4.224;2023-02-10T07:22:33;36.27;;;17.30;;
20711;SDS011;10517;50.742;4.224;2023-02-10T07:24:58;32.93;;;16.00;;
20711;SDS011;10517;50.742;4.224;2023-02-10T07:27:24;60.10;;;20.17;;
20711;SDS011;10517;50.742;4.224;2023-02-10T07:29:49;40.53;;;17.00;;
20711;SDS011;10517;50.742;4.224;2023-02-10T07:32:15;51.10;;;20.80;;
20711;SDS011;10517;50.742;4.224;2023-02-10T07:34:40;56.10;;;20.47;;
20711;SDS011;10517;50.742;4.224;2023-02-10T07:37:06;51.90;;;19.17;;
20711;SDS011;10517;50.742;4.224;2023-02-10T07:39:32;56.13;;;20.53;;
20711;SDS011;10517;50.742;4.224;2023-02-10T07:41:58;52.83;;;20.20;;
20711;SDS011;10517;50.742;4.224;2023-02-10T07:44:23;53.07;;;22.20;;
20711;SDS011;10517;50.742;4.224;2023-02-10T07:46:52;59.87;;;22.40;;
20711;SDS011;10517;50.742;4.224;2023-02-10T07:49:18;54.27;;;21.97;;
20711;SDS011;10517;50.742;4.224;2023-02-10T07:51:44;64.07;;;23.03;;
20711;SDS011;10517;50.742;4.224;2023-02-10T07:54:10;67.80;;;24.17;;
20711;SDS011;10517;50.742;4.224;2023-02-10T07:56:35;49.37;;;21.13;;
20711;SDS011;10517;50.742;4.224;2023-02-10T07:59:01;65.53;;;24.90;;
20711;SDS011;10517;50.742;4.224;2023-02-10T08:01:27;64.40;;;22.70;;
20711;SDS011;10517;50.742;4.224;2023-02-10T08:03:52;56.30;;;23.40;;
20711;SDS011;10517;50.742;4.224;2023-02-10T08:06:21;56.10;;;22.70;;
20711;SDS011;10517;50.742;4.224;2023-02-10T08:08:48;52.83;;;19.17;;
20711;SDS011;10517;50.742;4.224;2023-02-10T08:11:14;60.73;;;23.70;;
20711;SDS011;10517;50.742;4.224;2023-02-10T08:13:40;65.30;;;23.00;;
20711;SDS011;10517;50.742;4.224;2023-02-10T08:16:06;58.63;;;21.10;;
20711;SDS011;10517;50.742;4.224;2023-02-10T08:18:39;61.00;;;21.93;;
20711;SDS011;10517;50.742;4.224;2023-02-10T08:21:06;55.43;;;22.77;;
20711;SDS011;10517;50.742;4.224;2023-02-10T08:23:32;50.03;;;21.43;;
20711;SDS011;10517;50.742;4.224;2023-02-10T08:25:57;68.43;;;24.17;;
20711;SDS011;10517;50.742;4.224;2023-02-10T08:28:23;73.00;;;26.03;;
20711;SDS011;10517;50.742;4.224;2023-02-10T08:30:49;62.83;;;23.40;;
20711;SDS011;10517;50.742;4.224;2023-02-10T08:33:14;67.97;;;24.23;;
20711;SDS011;10517;50.742;4.224;2023-02-10T08:35:40;76.33;;;24.07;;
20711;SDS011;10517;50.742;4.224;2023-02-10T08:38:06;73.37;;;23.37;;
20711;SDS011;10517;50.742;4.224;2023-02-10T08:40:34;79.77;;;25.77;;
20711;SDS011;10517;50.742;4.224;2023-02-10T08:43:00;64.70;;;23.17;;
20711;SDS011;10517;50.742;4.224;2023-02-10T08:45:26;80.63;;;25.40;;
20711;SDS011;10517;50.742;4.224;2023-02-10T08:47:52;65.20;;;23.27;;
20711;SDS011;10517;50.742;4.224;2023-02-10T08:50:18;73.00;;;26.23;;
20711;SDS011;10517;50.742;4.224;2023-02-10T08:52:43;76.57;;;26.33;;
20711;SDS011;10517;50.742;4.224;2023-02-10T08:55:09;74.97;;;23.33;;
20711;SDS011;10517;50.742;4.224;2023-02-10T08:57:36;85.93;;;26.33;;
20711;SDS011;10517;50.742;4.224;2023-02-10T09:00:02;72.07;;;25.90;;
20711;SDS011;10517;50.742;4.224;2023-02-10T09:02:30;81.67;;;26.83;;
20711;SDS011;10517;50.742;4.224;2023-02-10T09:04:56;78.87;;;25.77;;
20711;SDS011;10517;50.742;4.224;2023-02-10T09:07:21;77.00;;;25.53;;
20711;SDS011;10517;50.742;4.224;2023-02-10T09:09:47;81.60;;;27.50;;
20711;SDS011;10517;50.742;4.224;2023-02-10T09:12:12;87.83;;;26.17;;
20711;SDS011;10517;50.742;4.224;2023-02-10T09:14:39;104.07;;;29.33;;
20711;SDS011;10517;50.742;4.224;2023-02-10T09:17:05;96.30;;;27.83;;
20711;SDS011;10517;50.742;4.224;2023-02-10T09:19:33;92.07;;;27.07;;
20711;SDS011;10517;50.742;4.224;2023-02-10T09:22:05;89.30;;;27.57;;
20711;SDS011;10517;50.742;4.224;2023-02-10T09:24:31;97.93;;;30.20;;
20711;SDS011;10517;50.742;4.224;2023-02-10T09:26:57;97.37;;;28.60;;
20711;SDS011;10517;50.742;4.224;2023-02-10T09:29:23;90.67;;;27.07;;
20711;SDS011;10517;50.742;4.224;2023-02-10T09:31:48;86.33;;;29.83;;
20711;SDS011;10517;50.742;4.224;2023-02-10T09:34:14;93.77;;;29.03;;
20711;SDS011;10517;50.742;4.224;2023-02-10T09:36:40;81.47;;;28.10;;
20711;SDS011;10517;50.742;4.224;2023-02-10T09:39:05;101.47;;;28.87;;
20711;SDS011;10517;50.742;4.224;2023-02-10T09:46:35;84.77;;;28.80;;
20711;SDS011;10517;50.742;4.224;2023-02-10T09:54:37;88.70;;;29.13;;
20711;SDS011;10517;50.742;4.224;2023-02-10T09:57:15;76.47;;;27.33;;
20711;SDS011;10517;50.742;4.224;2023-02-10T09:59:44;72.53;;;23.80;;
20711;SDS011;10517;50.742;4.224;2023-02-10T10:05:27;63.63;;;22.07;;
20711;SDS011;10517;50.742;4.224;2023-02-10T10:13:55;56.03;;;20.93;;
20711;SDS011;10517;50.742;4.224;2023-02-10T10:16:25;50.30;;;17.40;;
20711;SDS011;10517;50.742;4.224;2023-02-10T10:22:12;46.90;;;18.07;;
20711;SDS011;10517;50.742;4.224;2023-02-10T10:27:46;50.07;;;18.37;;
20711;SDS011;10517;50.742;4.224;2023-02-10T10:30:45;45.27;;;17.93;;
20711;SDS011;10517;50.742;4.224;2023-02-10T10:36:15;55.30;;;15.87;;
20711;SDS011;10517;50.742;4.224;2023-02-10T10:38:44;47.43;;;17.53;;
20711;SDS011;10517;50.742;4.224;2023-02-10T10:41:23;54.80;;;17.97;;
20711;SDS011;10517;50.742;4.224;2023-02-10T10:43:53;42.57;;;16.63;;
20711;SDS011;10517;50.742;4.224;2023-02-10T10:46:30;56.93;;;18.60;;
20711;SDS011;10517;50.742;4.224;2023-02-10T10:49:07;42.47;;;17.10;;
20711;SDS011;10517;50.742;4.224;2023-02-10T10:51:33;56.83;;;18.70;;
20711;SDS011;10517;50.742;4.224;2023-02-10T10:53:59;44.53;;;16.73;;
20711;SDS011;10517;50.742;4.224;2023-02-10T10:59:20;47.10;;;18.27;;
20711;SDS011;10517;50.742;4.224;2023-02-10T11:01:52;44.20;;;16.00;;
20711;SDS011;10517;50.742;4.224;2023-02-10T11:04:24;51.03;;;17.73;;
20711;SDS011;10517;50.742;4.224;2023-02-10T11:06:54;48.77;;;16.20;;
20711;SDS011;10517;50.742;4.224;2023-02-10T11:09:28;48.63;;;18.27;;
20711;SDS011;10517;50.742;4.224;2023-02-10T11:12:03;53.33;;;18.47;;
20711;SDS011;10517;50.742;4.224;2023-02-10T11:14:38;49.07;;;18.83;;
20711;SDS011;10517;50.742;4.224;2023-02-10T11:17:15;44.20;;;17.67;;
20711;SDS011;10517;50.742;4.224;2023-02-10T11:20:52;47.87;;;18.27;;
20711;SDS011;10517;50.742;4.224;2023-02-10T11:23:01;47.03;;;17.40;;
20711;SDS011;10517;50.742;4.224;2023-02-10T11:25:33;55.77;;;17.37;;
20711;SDS011;10517;50.742;4.224;2023-02-10T11:28:01;43.60;;;17.67;;
20711;SDS011;10517;50.742;4.224;2023-02-10T11:30:37;45.70;;;16.83;;
20711;SDS011;10517;50.742;4.224;2023-02-10T11:33:04;42.40;;;16.60;;
20711;SDS011;10517;50.742;4.224;2023-02-10T11:35:31;44.77;;;16.73;;
20711;SDS011;10517;50.742;4.224;2023-02-10T11:38:00;36.13;;;15.77;;
20711;SDS011;10517;50.742;4.224;2023-02-10T11:40:30;37.40;;;17.77;;
20711;SDS011;10517;50.742;4.224;2023-02-10T11:43:12;48.20;;;15.17;;
20711;SDS011;10517;50.742;4.224;2023-02-10T11:45:39;37.27;;;15.83;;
20711;SDS011;10517;50.742;4.224;2023-02-10T11:48:18;43.10;;;17.40;;
20711;SDS011;10517;50.742;4.224;2023-02-10T11:50:45;42.37;;;16.93;;
20711;SDS011;10517;50.742;4.224;2023-02-10T11:53:24;45.97;;;18.17;;
20711;SDS011;10517;50.742;4.224;2023-02-10T11:56:01;46.00;;;16.20;;
20711;SDS011;10517;50.742;4.224;2023-02-10T12:01:37;40.63;;;16.10;;
20711;SDS011;10517;50.742;4.224;2023-02-10T12:39:51;38.33;;;14.73;;
20711;SDS011;10517;50.742;4.224;2023-02-10T12:42:41;41.67;;;15.07;;
20711;SDS011;10517;50.742;4.224;2023-02-10T12:53:38;40.63;;;14.07;;
20711;SDS011;10517;50.742;4.224;2023-02-10T12:56:09;39.83;;;13.23;;
20711;SDS011;10517;50.742;4.224;2023-02-10T12:58:47;31.03;;;13.70;;
20711;SDS011;10517;50.742;4.224;2023-02-10T13:01:24;43.97;;;14.10;;
20711;SDS011;10517;50.742;4.224;2023-02-10T13:04:05;36.20;;;15.27;;
20711;SDS011;10517;50.742;4.224;2023-02-10T13:06:39;37.40;;;14.63;;
20711;SDS011;10517;50.742;4.224;2023-02-10T13:09:17;47.87;;;17.83;;
20711;SDS011;10517;50.742;4.224;2023-02-10T13:14:35;46.13;;;14.97;;
20711;SDS011;10517;50.742;4.224;2023-02-10T13:17:04;36.40;;;15.33;;
20711;SDS011;10517;50.742;4.224;2023-02-10T13:22:06;40.03;;;14.83;;
20711;SDS011;10517;50.742;4.224;2023-02-10T13:24:48;45.20;;;16.83;;
20711;SDS011;10517;50.742;4.224;2023-02-10T13:35:20;39.10;;;13.23;;
20711;SDS011;10517;50.742;4.224;2023-02-10T13:37:50;38.50;;;14.53;;
20711;SDS011;10517;50.742;4.224;2023-02-10T13:40:21;44.37;;;14.03;;
20711;SDS011;10517;50.742;4.224;2023-02-10T13:43:00;39.40;;;15.67;;
20711;SDS011;10517;50.742;4.224;2023-02-10T13:45:28;39.00;;;13.80;;
20711;SDS011;10517;50.742;4.224;2023-02-10T13:48:00;40.20;;;14.70;;
20711;SDS011;10517;50.742;4.224;2023-02-10T13:50:42;48.27;;;14.73;;
20711;SDS011;10517;50.742;4.224;2023-02-10T14:04:00;44.57;;;14.67;;
20711;SDS011;10517;50.742;4.224;2023-02-10T14:06:37;48.07;;;16.17;;
20711;SDS011;10517;50.742;4.224;2023-02-10T14:09:59;52.20;;;14.97;;
20711;SDS011;10517;50.742;4.224;2023-02-10T14:12:00;47.67;;;15.20;;
20711;SDS011;10517;50.742;4.224;2023-02-10T14:19:38;51.47;;;16.03;;
20711;SDS011;10517;50.742;4.224;2023-02-10T14:22:06;46.40;;;16.73;;
20711;SDS011;10517;50.742;4.224;2023-02-10T14:24:45;50.13;;;16.37;;
20711;SDS011;10517;50.742;4.224;2023-02-10T14:27:12;44.87;;;15.37;;
20711;SDS011;10517;50.742;4.224;2023-02-10T14:29:39;43.03;;;14.87;;
20711;SDS011;10517;50.742;4.224;2023-02-10T14:32:14;49.40;;;15.23;;
20711;SDS011;10517;50.742;4.224;2023-02-10T14:34:42;47.33;;;16.30;;
20711;SDS011;10517;50.742;4.224;2023-02-10T14:37:20;46.07;;;17.17;;
20711;SDS011;10517;50.742;4.224;2023-02-10T14:40:21;47.83;;;15.97;;
20711;SDS011;10517;50.742;4.224;2023-02-10T14:42:42;51.90;;;16.97;;
20711;SDS011;10517;50.742;4.224;2023-02-10T14:45:18;53.97;;;17.60;;
20711;SDS011;10517;50.742;4.224;2023-02-10T14:47:49;47.27;;;16.03;;
20711;SDS011;10517;50.742;4.224;2023-02-10T14:50:22;45.97;;;16.67;;
20711;SDS011;10517;50.742;4.224;2023-02-10T14:52:59;44.73;;;17.17;;
20711;SDS011;10517;50.742;4.224;2023-02-10T14:57:51;51.63;;;17.33;;
20711;SDS011;10517;50.742;4.224;2023-02-10T15:00:20;39.27;;;14.77;;
20711;SDS011;10517;50.742;4.224;2023-02-10T15:02:52;47.43;;;15.70;;
20711;SDS011;10517;50.742;4.224;2023-02-10T15:05:22;49.90;;;17.10;;
20711;SDS011;10517;50.742;4.224;2023-02-10T15:07:50;48.53;;;14.63;;
20711;SDS011;10517;50.742;4.224;2023-02-10T15:12:56;44.60;;;15.13;;
20711;SDS011;10517;50.742;4.224;2023-02-10T15:17:56;35.87;;;14.07;;
20711;SDS011;10517;50.742;4.224;2023-02-10T15:20:36;48.77;;;17.27;;
20711;SDS011;10517;50.742;4.224;2023-02-10T15:27:55;53.90;;;18.27;;
20711;SDS011;10517;50.742;4.224;2023-02-10T15:30:23;51.17;;;16.20;;
20711;SDS011;10517;50.742;4.224;2023-02-10T15:32:52;55.90;;;16.73;;
20711;SDS011;10517;50.742;4.224;2023-02-10T15:35:22;51.70;;;17.03;;
20711;SDS011;10517;50.742;4.224;2023-02-10T15:37:49;48.30;;;18.10;;
20711;SDS011;10517;50.742;4.224;2023-02-10T15:40:24;41.80;;;16.27;;
20711;SDS011;10517;50.742;4.224;2023-02-10T15:42:56;49.83;;;17.50;;
20711;SDS011;10517;50.742;4.224;2023-02-10T15:45:30;50.43;;;17.77;;
20711;SDS011;10517;50.742;4.224;2023-02-10T15:47:59;49.40;;;16.03;;
20711;SDS011;10517;50.742;4.224;2023-02-10T15:50:34;55.23;;;18.23;;
20711;SDS011;10517;50.742;4.224;2023-02-10T15:53:01;59.20;;;16.87;;
20711;SDS011;10517;50.742;4.224;2023-02-10T15:55:35;46.10;;;17.37;;
20711;SDS011;10517;50.742;4.224;2023-02-10T15:58:04;51.07;;;16.23;;
20711;SDS011;10517;50.742;4.224;2023-02-10T16:00:31;45.50;;;17.37;;
20711;SDS011;10517;50.742;4.224;2023-02-10T16:02:58;59.07;;;17.63;;
20711;SDS011;10517;50.742;4.224;2023-02-10T16:05:25;49.50;;;16.80;;
20711;SDS011;10517;50.742;4.224;2023-02-10T16:07:52;59.70;;;19.17;;
20711;SDS011;10517;50.742;4.224;2023-02-10T16:10:23;56.53;;;19.27;;
20711;SDS011;10517;50.742;4.224;2023-02-10T16:12:50;50.03;;;17.60;;
20711;SDS011;10517;50.742;4.224;2023-02-10T16:15:19;51.00;;;18.07;;
20711;SDS011;10517;50.742;4.224;2023-02-10T16:17:47;52.67;;;17.47;;
20711;SDS011;10517;50.742;4.224;2023-02-10T16:20:18;54.23;;;18.70;;
20711;SDS011;10517;50.742;4.224;2023-02-10T16:22:46;42.23;;;18.60;;
20711;SDS011;10517;50.742;4.224;2023-02-10T16:25:13;58.97;;;20.60;;
20711;SDS011;10517;50.742;4.224;2023-02-10T16:27:40;57.63;;;17.93;;
20711;SDS011;10517;50.742;4.224;2023-02-10T16:30:05;56.30;;;19.60;;
20711;SDS011;10517;50.742;4.224;2023-02-10T16:32:31;50.57;;;20.17;;
20711;SDS011;10517;50.742;4.224;2023-02-10T16:34:57;53.43;;;18.33;;
20711;SDS011;10517;50.742;4.224;2023-02-10T16:37:22;52.03;;;17.90;;
20711;SDS011;10517;50.742;4.224;2023-02-10T16:39:48;49.40;;;19.50;;
20711;SDS011;10517;50.742;4.224;2023-02-10T16:42:14;44.63;;;17.80;;
20711;SDS011;10517;50.742;4.224;2023-02-10T16:44:40;55.63;;;18.40;;
20711;SDS011;10517;50.742;4.224;2023-02-10T16:47:06;47.93;;;18.80;;
20711;SDS011;10517;50.742;4.224;2023-02-10T16:49:31;51.53;;;18.10;;
20711;SDS011;10517;50.742;4.224;2023-02-10T16:51:57;40.27;;;15.93;;